Time;durP1;ratioP1;P1;durP2;ratioP2;P2;SDS_P1;SDS_P2;PMS_P1;PMS_P2;Temp;Humidity;BMP_temperature;BMP_pressure;BME280_temperature;BME280_humidity;BME280_pressure;Samples;Min_cycle;Max_cycle;Signal;HPM_P1;HPM_P2
2023/08/04 00:01:18;;;;;;;8.63;2.65;;;;;;;;;;4984803;28;20050;-86
2023/08/04 00:03:46;;;;;;;9.60;2.63;;;;;;;;;;4952574;28;20073;-86
2023/08/04 00:06:12;;;;;;;8.43;2.30;;;;;;;;;;4980569;28;20046;-86
2023/08/04 00:08:38;;;;;;;10.30;2.85;;;;;;;;;;4953346;28;20050;-86
2023/08/04 00:11:05;;;;;;;9.23;2.60;;;;;;;;;;4968305;28;20050;-86
2023/08/04 00:13:34;;;;;;;11.45;2.55;;;;;;;;;;4983831;28;20121;-86
2023/08/04 00:16:05;;;;;;;12.43;3.10;;;;;;;;;;4967647;28;20084;-86
2023/08/04 00:18:34;;;;;;;11.57;2.83;;;;;;;;;;4969133;28;20050;-87
2023/08/04 00:21:00;;;;;;;7.55;2.40;;;;;;;;;;4967933;28;20052;-87
2023/08/04 00:23:26;;;;;;;10.00;2.85;;;;;;;;;;4952035;28;20049;-88
2023/08/04 00:25:52;;;;;;;10.30;3.00;;;;;;;;;;4951621;28;20074;-86
2023/08/04 00:28:18;;;;;;;7.97;2.40;;;;;;;;;;4966838;28;20502;-87
2023/08/04 00:30:44;;;;;;;10.05;2.90;;;;;;;;;;4966423;28;20074;-87
2023/08/04 00:33:10;;;;;;;10.57;2.88;;;;;;;;;;4985333;28;20596;-85
2023/08/04 00:35:39;;;;;;;9.88;2.72;;;;;;;;;;4967832;28;20050;-86
2023/08/04 00:38:05;;;;;;;8.18;2.33;;;;;;;;;;4968033;28;20089;-85
2023/08/04 00:40:32;;;;;;;14.80;2.70;;;;;;;;;;4968664;28;20050;-86
2023/08/04 00:43:00;;;;;;;13.13;2.33;;;;;;;;;;4950822;28;20116;-86
2023/08/04 00:45:29;;;;;;;9.52;2.90;;;;;;;;;;4967413;28;20078;-86
2023/08/04 00:47:55;;;;;;;;;;;;;;;;;;4969147;28;20050;-85
2023/08/04 00:50:21;;;;;;;;;;;;;;;;;;4950720;28;19930;-86
2023/08/04 00:52:47;;;;;;;;;;;;;;;;;;4951670;28;19976;-86
2023/08/04 00:55:13;;;;;;;;;;;;;;;;;;4968320;28;20024;-86
2023/08/04 00:57:39;;;;;;;;;;;;;;;;;;4967016;28;19968;-85
2023/08/04 01:00:06;;;;;;;;;;;;;;;;;;4967402;28;20068;-85
2023/08/04 01:02:32;;;;;;;;;;;;;;;;;;4968505;28;20137;-86
2023/08/04 01:04:57;;;;;;;;;;;;;;;;;;4971514;28;20480;-86
2023/08/04 01:07:23;;;;;;;;;;;;;;;;;;4975004;28;20329;-86
2023/08/04 01:09:50;;;;;;;;;;;;;;;;;;4956093;28;20197;-85
2023/08/04 01:12:16;;;;;;;;;;;;;;;;;;4955325;28;20289;-85
2023/08/04 01:14:42;;;;;;;;;;;;;;;;;;4970894;28;20053;-86
2023/08/04 01:17:08;;;;;;;;;;;;;;;;;;4972015;28;19922;-86
2023/08/04 01:19:34;;;;;;;;;;;;;;;;;;4956286;28;19926;-86
2023/08/04 01:22:00;;;;;;;;;;;;;;;;;;4958073;28;20356;-87
2023/08/04 01:24:26;;;;;;;;;;;;;;;;;;4965103;28;20390;-85
2023/08/04 01:26:52;;;;;;;;;;;;;;;;;;4978368;28;20020;-86
2023/08/04 01:29:18;;;;;;;;;;;;;;;;;;4982697;28;19972;-85
2023/08/04 01:31:43;;;;;;;;;;;;;;;;;;4971140;28;20014;-86
2023/08/04 01:34:09;;;;;;;;;;;;;;;;;;4957200;28;20489;-86
2023/08/04 01:36:35;;;;;;;;;;;;;;;;;;4970005;28;19933;-87
2023/08/04 01:39:01;;;;;;;;;;;;;;;;;;4954452;28;19933;-86
2023/08/04 01:41:30;;;;;;;;;;;;;;;;;;4952233;28;19976;-86
2023/08/04 01:43:59;;;;;;;;;;;;;;;;;;4968537;28;20469;-87
2023/08/04 01:46:25;;;;;;;;;;;;;;;;;;4976456;28;19926;-86
2023/08/04 01:48:51;;;;;;;;;;;;;;;;;;4951683;28;19933;-86
2023/08/04 01:51:17;;;;;;;;;;;;;;;;;;4951647;28;19969;-87
2023/08/04 01:53:43;;;;;;;;;;;;;;;;;;4949474;28;20021;-87
2023/08/04 01:56:09;;;;;;;;;;;;;;;;;;4947933;28;19922;-86
2023/08/04 01:58:35;;;;;;;;;;;;;;;;;;4949518;28;20387;-87
2023/08/04 02:01:01;;;;;;;;;;;;;;;;;;4946636;28;20105;-87
2023/08/04 02:03:27;;;;;;;;;;;;;;;;;;4948519;28;19945;-85
2023/08/04 02:05:52;;;;;;;;;;;;;;;;;;4947929;28;20002;-86
2023/08/04 02:08:18;;;;;;;;;;;;;;;;;;4956651;28;19937;-86
2023/08/04 02:10:44;;;;;;;;;;;;;;;;;;4952582;28;19926;-86
2023/08/04 02:13:10;;;;;;;;;;;;;;;;;;4946731;28;19930;-86
2023/08/04 02:15:36;;;;;;;;;;;;;;;;;;4960878;28;20400;-85
2023/08/04 02:18:02;;;;;;;;;;;;;;;;;;4955728;28;19926;-86
2023/08/04 02:20:28;;;;;;;;;;;;;;;;;;4970730;28;20378;-87
2023/08/04 02:22:54;;;;;;;;;;;;;;;;;;4975021;28;20378;-87
2023/08/04 02:25:20;;;;;;;;;;;;;;;;;;4955553;28;19932;-86
2023/08/04 02:27:46;;;;;;;;;;;;;;;;;;4954949;28;20004;-86
2023/08/04 02:30:14;;;;;;;;;;;;;;;;;;4967066;28;19926;-85
2023/08/04 02:32:43;;;;;;;;;;;;;;;;;;4954309;28;19961;-86
2023/08/04 02:35:09;;;;;;;;;;;;;;;;;;4967937;28;20310;-85
2023/08/04 02:37:34;;;;;;;;;;;;;;;;;;4974138;28;19940;-86
2023/08/04 02:40:00;;;;;;;;;;;;;;;;;;4975548;28;19928;-85
2023/08/04 02:42:26;;;;;;;;;;;;;;;;;;4955443;28;19925;-85
2023/08/04 02:44:52;;;;;;;;;;;;;;;;;;4956387;28;19930;-86
2023/08/04 02:47:18;;;;;;;;;;;;;;;;;;4965822;28;20012;-86
2023/08/04 02:49:44;;;;;;;;;;;;;;;;;;4947576;28;19933;-85
2023/08/04 02:52:14;;;;;;;;;;;;;;;;;;4973084;28;19976;-86
2023/08/04 02:54:40;;;;;;;;;;;;;;;;;;4951757;28;19992;-86
2023/08/04 02:57:06;;;;;;;;;;;;;;;;;;4956682;28;19925;-87
2023/08/04 02:59:32;;;;;;;;;;;;;;;;;;4967980;28;19933;-86
2023/08/04 03:01:58;;;;;;;;;;;;;;;;;;4964437;28;19928;-85
2023/08/04 03:04:23;;;;;;;;;;;;;;;;;;4958979;28;20026;-86
2023/08/04 03:06:50;;;;;;;;;;;;;;;;;;4956995;28;19937;-86
2023/08/04 03:09:18;;;;;;;;;;;;;;;;;;4972375;28;19926;-85
2023/08/04 03:11:44;;;;;;;;;;;;;;;;;;4957576;28;19973;-86
2023/08/04 03:14:10;;;;;;;;;;;;;;;;;;4974283;28;19968;-85
2023/08/04 03:16:36;;;;;;;;;;;;;;;;;;4939361;28;19997;-86
2023/08/04 03:19:02;;;;;;;;;;;;;;;;;;4958237;28;19972;-85
2023/08/04 03:21:28;;;;;;;;;;;;;;;;;;4990561;28;19936;-87
2023/08/04 03:23:54;;;;;;;;;;;;;;;;;;4968730;28;20012;-86
2023/08/04 03:26:20;;;;;;;;;;;;;;;;;;4968029;28;19980;-87
2023/08/04 03:28:46;;;;;;;;;;;;;;;;;;4969457;28;20305;-86
2023/08/04 03:31:12;;;;;;;;;;;;;;;;;;4969499;28;19930;-86
2023/08/04 03:33:38;;;;;;;;;;;;;;;;;;4967283;28;19928;-86
2023/08/04 03:36:04;;;;;;;;;;;;;;;;;;4971143;28;19930;-86
2023/08/04 03:38:29;;;;;;;;;;;;;;;;;;4950698;28;20337;-86
2023/08/04 03:40:55;;;;;;;;;;;;;;;;;;4969388;28;19925;-85
2023/08/04 03:43:24;;;;;;;;;;;;;;;;;;4967580;28;19926;-87
2023/08/04 03:45:53;;;;;;;;;;;;;;;;;;4965440;28;20727;-87
2023/08/04 03:48:22;;;;;;;;;;;;;;;;;;4984722;28;20458;-87
2023/08/04 03:50:48;;;;;;;;;;;;;;;;;;4964593;28;19929;-87
2023/08/04 03:53:14;;;;;;;;;;;;;;;;;;4984543;28;19925;-87
2023/08/04 03:55:43;;;;;;;;;;;;;;;;;;4951679;28;19926;-86
2023/08/04 03:58:12;;;;;;;;;;;;;;;;;;4967541;28;19926;-86
2023/08/04 04:00:41;;;;;;;;;;;;;;;;;;4967946;28;19969;-87
2023/08/04 04:03:06;;;;;;;;;;;;;;;;;;4968241;28;20008;-86
2023/08/04 04:05:35;;;;;;;;;;;;;;;;;;4962550;28;19926;-86
2023/08/04 04:08:04;;;;;;;;;;;;;;;;;;4968132;28;19932;-87
2023/08/04 04:10:33;;;;;;;;;;;;;;;;;;4963759;28;20429;-87
2023/08/04 04:12:59;;;;;;;;;;;;;;;;;;4965454;28;19926;-86
2023/08/04 04:15:25;;;;;;;;;;;;;;;;;;4972741;28;19925;-86
2023/08/04 04:17:54;;;;;;;;;;;;;;;;;;4953524;28;19925;-86
2023/08/04 04:20:20;;;;;;;;;;;;;;;;;;4967750;28;19922;-86
2023/08/04 04:22:49;;;;;;;;;;;;;;;;;;4985496;28;19933;-87
2023/08/04 04:25:18;;;;;;;;;;;;;;;;;;4950334;28;20362;-86
2023/08/04 04:27:44;;;;;;;;;;;;;;;;;;4965628;28;20346;-85
2023/08/04 04:30:10;;;;;;;;;;;;;;;;;;4951240;28;19930;-86
2023/08/04 04:32:36;;;;;;;;;;;;;;;;;;4983831;28;19926;-86
2023/08/04 04:35:02;;;;;;;;;;;;;;;;;;4984812;28;19921;-86
2023/08/04 04:37:28;;;;;;;;;;;;;;;;;;4985129;28;19929;-86
2023/08/04 04:39:54;;;;;;;;;;;;;;;;;;4970901;28;20360;-86
2023/08/04 04:42:20;;;;;;;;;;;;;;;;;;4970314;28;20017;-86
2023/08/04 04:44:46;;;;;;;;;;;;;;;;;;4969507;28;19961;-86
2023/08/04 04:47:12;;;;;;;;;;;;;;;;;;4972172;28;19937;-86
2023/08/04 04:49:38;;;;;;;;;;;;;;;;;;4970624;28;20386;-86
2023/08/04 04:52:04;;;;;;;;;;;;;;;;;;4972040;28;19925;-86
2023/08/04 04:54:30;;;;;;;;;;;;;;;;;;4970010;28;19922;-86
2023/08/04 04:56:56;;;;;;;;;;;;;;;;;;4952082;28;19995;-86
2023/08/04 04:59:22;;;;;;;;;;;;;;;;;;4970003;28;19922;-86
2023/08/04 05:01:48;;;;;;;;;;;;;;;;;;4986800;28;19929;-86
2023/08/04 05:04:14;;;;;;;;;;;;;;;;;;4970898;28;19929;-88
2023/08/04 05:06:40;;;;;;;;;;;;;;;;;;4988643;28;19934;-87
2023/08/04 05:09:05;;;;;;;;;;;;;;;;;;4970270;28;19961;-86
2023/08/04 05:11:31;;;;;;;;;;;;;;;;;;4971423;28;20040;-87
2023/08/04 05:13:57;;;;;;;;;;;;;;;;;;4970525;28;19925;-87
2023/08/04 05:16:23;;;;;;;;;;;;;;;;;;4963844;28;19926;-87
2023/08/04 05:18:52;;;;;;;;;;;;;;;;;;4953358;28;19928;-86
2023/08/04 05:21:18;;;;;;;;;;;;;;;;;;4986137;28;19991;-86
2023/08/04 05:23:44;;;;;;;;;;;;;;;;;;4986173;28;19922;-87
2023/08/04 05:26:10;;;;;;;;;;;;;;;;;;4966566;28;19936;-87
2023/08/04 05:28:38;;;;;;;;;;;;;;;;;;4950189;28;20378;-86
2023/08/04 05:31:10;;;;;;;;;;;;;;;;;;4971728;28;20343;-86
2023/08/04 05:33:36;;;;;;;;;;;;;;;;;;4970819;28;19933;-86
2023/08/04 05:36:05;;;;;;;;;;;;;;;;;;4972004;28;19925;-87
2023/08/04 05:38:32;;;;;;;;;;;;;;;;;;4971888;28;19965;-87
2023/08/04 05:40:58;;;;;;;;;;;;;;;;;;4989409;28;19932;-86
2023/08/04 05:43:24;;;;;;;;;;;;;;;;;;4954135;28;19936;-87
2023/08/04 05:45:50;;;;;;;;;;;;;;;;;;4954695;28;19925;-87
2023/08/04 05:48:16;;;;;;;;;;;;;;;;;;4952947;28;20647;-87
2023/08/04 05:51:03;;;;;;;;;;;;;;;;;;4985428;28;20012;-86
2023/08/04 05:53:28;;;;;;;;;;;;;;;;;;4971202;28;19933;-86
2023/08/04 05:55:54;;;;;;;;;;;;;;;;;;4954571;28;19921;-86
2023/08/04 05:58:20;;;;;;;;;;;;;;;;;;4954042;28;19933;-86
2023/08/04 06:00:46;;;;;;;;;;;;;;;;;;4984575;28;19933;-86
2023/08/04 06:03:12;;;;;;;;;;;;;;;;;;4953820;28;19979;-86
2023/08/04 06:05:38;;;;;;;;;;;;;;;;;;4966411;28;19980;-86
2023/08/04 06:08:04;;;;;;;;;;;;;;;;;;4985873;28;19976;-86
2023/08/04 06:10:30;;;;;;;;;;;;;;;;;;4971372;28;19925;-86
2023/08/04 06:12:56;;;;;;;;;;;;;;;;;;4952400;28;20008;-86
2023/08/04 06:15:22;;;;;;;;;;;;;;;;;;4970049;28;19980;-85
2023/08/04 06:17:48;;;;;;;;;;;;;;;;;;4971269;28;20040;-86
2023/08/04 06:20:14;;;;;;;;;;;;;;;;;;4970118;28;19926;-85
2023/08/04 06:22:40;;;;;;;;;;;;;;;;;;4968083;28;19929;-86
2023/08/04 06:25:06;;;;;;;;;;;;;;;;;;4972015;28;19913;-86
2023/08/04 06:27:32;;;;;;;;;;;;;;;;;;4970122;28;19922;-87
2023/08/04 06:30:01;;;;;;;;;;;;;;;;;;4988288;28;19957;-86
2023/08/04 06:32:28;;;;;;;;;;;;;;;;;;4954857;28;20620;-85
2023/08/04 06:34:54;;;;;;;;;;;;;;;;;;4970698;28;19925;-86
2023/08/04 06:37:20;;;;;;;;;;;;;;;;;;4970197;28;20402;-86
2023/08/04 06:39:46;;;;;;;;;;;;;;;;;;4985389;28;20013;-87
2023/08/04 06:42:18;;;;;;;;;;;;;;;;;;4952744;28;19929;-86
2023/08/04 06:44:44;;;;;;;;;;;;;;;;;;4976343;28;20417;-86
2023/08/04 06:47:10;;;;;;;;;;;;;;;;;;4952551;28;19932;-86
2023/08/04 06:49:36;;;;;;;;;;;;;;;;;;4967822;28;19925;-87
2023/08/04 06:52:05;;;;;;;;;;;;;;;;;;4968919;28;20429;-86
2023/08/04 06:54:35;;;;;;;;;;;;;;;;;;4972057;28;19976;-86
2023/08/04 06:57:01;;;;;;;;;;;;;;;;;;4968108;28;19929;-86
2023/08/04 06:59:27;;;;;;;;;;;;;;;;;;4952573;28;19926;-86
2023/08/04 07:01:53;;;;;;;;;;;;;;;;;;4969644;28;19933;-87
2023/08/04 07:04:19;;;;;;;;;;;;;;;;;;4969985;28;19964;-86
2023/08/04 07:06:45;;;;;;;;;;;;;;;;;;4970148;28;19937;-86
2023/08/04 07:09:11;;;;;;;;;;;;;;;;;;4988503;28;20302;-85
2023/08/04 07:11:40;;;;;;;;;;;;;;;;;;4985204;28;20334;-86
2023/08/04 07:14:06;;;;;;;;;;;;;;;;;;4959217;28;19922;-87
2023/08/04 07:16:32;;;;;;;;;;;;;;;;;;4983953;28;20036;-87
2023/08/04 07:18:58;;;;;;;;;;;;;;;;;;4968794;28;20961;-86
2023/08/04 07:21:24;;;;;;;;;;;;;;;;;;4939865;28;20408;-86
2023/08/04 07:23:50;;;;;;;;;;;;;;;;;;4960176;28;19952;-86
2023/08/04 07:26:16;;;;;;;;;;;;;;;;;;4962042;28;19925;-87
2023/08/04 07:28:42;;;;;;;;;;;;;;;;;;4944528;28;20028;-86
2023/08/04 07:31:10;;;;;;;;;;;;;;;;;;4967023;28;19933;-85
2023/08/04 07:33:51;;;;;;;;;;;;;;;;;;4977268;28;20016;-87
2023/08/04 07:36:17;;;;;;;;;;;;;;;;;;4969078;28;19926;-86
2023/08/04 07:38:43;;;;;;;;;;;;;;;;;;4968475;28;20382;-87
2023/08/04 07:41:12;;;;;;;;;;;;;;;;;;4949407;28;19929;-88
2023/08/04 07:43:38;;;;;;;;;;;;;;;;;;4953650;28;19925;-88
2023/08/04 07:46:04;;;;;;;;;;;;;;;;;;4955834;28;19925;-87
2023/08/04 07:48:30;;;;;;;;;;;;;;;;;;4988015;28;19926;-87
2023/08/04 07:50:56;;;;;;;;;;;;;;;;;;4951556;28;20465;-87
2023/08/04 07:53:22;;;;;;;;;;;;;;;;;;4967550;28;19922;-88
2023/08/04 07:55:48;;;;;;;;;;;;;;;;;;4965886;28;20273;-87
2023/08/04 07:58:14;;;;;;;;;;;;;;;;;;4966942;28;20271;-90
2023/08/04 08:00:40;;;;;;;;;;;;;;;;;;4947874;28;19922;-88
2023/08/04 08:03:06;;;;;;;;;;;;;;;;;;4964338;28;19926;-89
2023/08/04 08:05:35;;;;;;;;;;;;;;;;;;4945539;28;19922;-89
2023/08/04 08:08:01;;;;;;;;;;;;;;;;;;4946211;28;19956;-88
2023/08/04 08:10:30;;;;;;;;;;;;;;;;;;4964180;28;19999;-89
2023/08/04 08:13:07;;;;;;;;;;;;;;;;;;;;;
2023/08/04 08:15:33;;;;;;;;;;;;;;;;;;4982077;28;19926;-88
2023/08/04 08:17:59;;;;;;;;;;;;;;;;;;4966451;28;19933;-88
2023/08/04 08:20:25;;;;;;;;;;;;;;;;;;4964912;28;20409;-88
2023/08/04 08:22:51;;;;;;;;;;;;;;;;;;4947792;28;20133;-88
2023/08/04 08:25:20;;;;;;;;;;;;;;;;;;4981248;28;19925;-88
2023/08/04 08:27:46;;;;;;;;;;;;;;;;;;4955001;28;19925;-89
2023/08/04 08:30:12;;;;;;;;;;;;;;;;;;4952384;28;19928;-87
2023/08/04 08:32:38;;;;;;;;;;;;;;;;;;4986404;28;19925;-86
2023/08/04 08:35:04;;;;;;;;;;;;;;;;;;4967819;28;20000;-86
2023/08/04 08:37:36;;;;;;;;;;;;;;;;;;4967510;28;19926;-87
2023/08/04 08:40:05;;;;;;;;;;;;;;;;;;4983484;28;19922;-86
2023/08/04 08:42:31;;;;;;;;;;;;;;;;;;4963763;28;20004;-86
2023/08/04 08:44:57;;;;;;;;;;;;;;;;;;4945966;28;20338;-87
2023/08/04 08:47:23;;;;;;;;;;;;;;;;;;4963258;28;20236;-86
2023/08/04 08:49:52;;;;;;;;;;;;;;;;;;4981298;28;20241;-86
2023/08/04 08:52:18;;;;;;;;;;;;;;;;;;4949732;28;19922;-86
2023/08/04 08:54:44;;;;;;;;;;;;;;;;;;4981759;28;19928;-85
2023/08/04 08:57:10;;;;;;;;;;;;;;;;;;4949379;28;19933;-85
2023/08/04 08:59:36;;;;;;;;;;;;;;;;;;4964415;28;19921;-85
2023/08/04 09:02:02;;;;;;;;;;;;;;;;;;4949305;28;19925;-85
2023/08/04 09:04:28;;;;;;;;;;;;;;;;;;4965420;28;20209;-85
2023/08/04 09:06:57;;;;;;;;;;;;;;;;;;4982118;28;20122;-86
2023/08/04 09:09:29;;;;;;;;;;;;;;;;;;4949901;28;19972;-85
2023/08/04 09:11:56;;;;;;;;;;;;;;;;;;4946622;28;19967;-85
2023/08/04 09:14:22;;;;;;;;;;;;;;;;;;4963162;28;20298;-85
2023/08/04 09:16:49;;;;;;;;;;;;;;;;;;4965587;28;19975;-86
2023/08/04 09:19:15;;;;;;;;;;;;;;;;;;4982266;28;19932;-87
2023/08/04 09:21:44;;;;;;;;;;;;;;;;;;4962818;28;19922;-89
2023/08/04 09:24:10;;;;;;;;;;;;;;;;;;4968521;28;19929;-87
2023/08/04 09:26:39;;;;;;;;;;;;;;;;;;4947779;28;19980;-87
2023/08/04 09:29:05;;;;;;;;;;;;;;;;;;4968748;28;19922;-84
2023/08/04 09:31:31;;;;;;;;;;;;;;;;;;4969140;28;20016;-84
2023/08/04 09:33:57;;;;;;;;;;;;;;;;;;4986910;28;19929;-85
2023/08/04 09:36:23;;;;;;;;;;;;;;;;;;4967272;28;19932;-85
2023/08/04 09:38:49;;;;;;;;;;;;;;;;;;4969080;28;20452;-85
2023/08/04 09:41:17;;;;;;;;;;;;;;;;;;4952750;28;19929;-85
2023/08/04 09:43:43;;;;;;;;;;;;;;;;;;4947130;28;19929;-86
2023/08/04 09:46:13;;;;;;;;;;;;;;;;;;4952338;28;19926;-85
2023/08/04 09:48:38;;;;;;;;;;;;;;;;;;4952666;28;19992;-85
2023/08/04 09:51:06;;;;;;;;;;;;;;;;;;4967622;28;19933;-86
2023/08/04 09:53:32;;;;;;;;;;;;;;;;;;4967236;28;19925;-85
2023/08/04 09:55:58;;;;;;;;;;;;;;;;;;4950956;28;19926;-86
2023/08/04 09:58:23;;;;;;;;;;;;;;;;;;4963911;28;19939;-86
2023/08/04 10:00:49;;;;;;;;;;;;;;;;;;4967321;28;20174;-87
2023/08/04 10:03:15;;;;;;;;;;;;;;;;;;4950356;28;19926;-85
2023/08/04 10:05:41;;;;;;;;;;;;;;;;;;4985910;28;19925;-86
2023/08/04 10:08:10;;;;;;;;;;;;;;;;;;4950011;28;20354;-86
2023/08/04 10:10:36;;;;;;;;;;;;;;;;;;4980938;28;20425;-85
2023/08/04 10:13:02;;;;;;;;;;;;;;;;;;4968582;28;20028;-86
2023/08/04 10:15:31;;;;;;;;;;;;;;;;;;4952669;28;19968;-86
2023/08/04 10:17:57;;;;;;;;;;;;;;;;;;4953755;28;19955;-87
2023/08/04 10:20:27;;;;;;;;;;;;;;;;;;4952704;28;19929;-87
2023/08/04 10:22:59;;;;;;;;;;;;;;;;;;4956558;28;19973;-86
2023/08/04 10:25:27;;;;;;;;;;;;;;;;;;4987273;28;19921;-86
2023/08/04 10:27:53;;;;;;;;;;;;;;;;;;4968882;28;19926;-89
2023/08/04 10:30:19;;;;;;;;;;;;;;;;;;4966614;28;19956;-86
2023/08/04 10:32:47;;;;;;;;;;;;;;;;;;4970488;28;19926;-88
2023/08/04 10:35:16;;;;;;;;;;;;;;;;;;4971046;28;19969;-90
2023/08/04 10:37:45;;;;;;;;;;;;;;;;;;4968613;28;19930;-90
2023/08/04 10:40:12;;;;;;;;;;;;;;;;;;4988193;28;19921;-87
2023/08/04 10:42:38;;;;;;;;;;;;;;;;;;4968309;28;19964;-89
2023/08/04 10:45:04;;;;;;;;;;;;;;;;;;4952811;28;20468;-89
2023/08/04 10:47:33;;;;;;;;;;;;;;;;;;4952357;28;20032;-89
2023/08/04 10:49:59;;;;;;;;;;;;;;;;;;4968845;28;19936;-89
2023/08/04 10:52:25;;;;;;;;;;;;;;;;;;4964315;28;19925;-89
2023/08/04 10:54:51;;;;;;;;;;;;;;;;;;4965236;28;20366;-89
2023/08/04 10:57:17;;;;;;;;;;;;;;;;;;4967089;28;19933;-89
2023/08/04 10:59:43;;;;;;;;;;;;;;;;;;4968392;28;20429;-90
2023/08/04 11:02:09;;;;;;;;;;;;;;;;;;4967119;28;20016;-91
2023/08/04 11:04:35;;;;;;;;;;;;;;;;;;4948385;28;19930;-90
2023/08/04 11:07:01;;;;;;;;;;;;;;;;;;4985067;28;19930;-90
2023/08/04 11:09:27;;;;;;;;;;;;;;;;;;4968417;28;20436;-88
2023/08/04 11:11:56;;;;;;;;;;;;;;;;;;4951092;28;19929;-89
2023/08/04 11:14:22;;;;;;;;;;;;;;;;;;4951863;28;19922;-89
2023/08/04 11:16:49;;;;;;;;;;;;;;;;;;4968716;28;19933;-91
2023/08/04 11:19:15;;;;;;;;;;;;;;;;;;4968873;28;19965;-89
2023/08/04 11:21:41;;;;;;;;;;;;;;;;;;4955886;28;20347;-89
2023/08/04 11:24:08;;;;;;;;;;;;;;;;;;4954204;28;19925;-90
2023/08/04 11:26:34;;;;;;;;;;;;;;;;;;4972953;28;19925;-89
2023/08/04 11:29:00;;;;;;;;;;;;;;;;;;4968693;28;20341;-88
2023/08/04 11:31:26;;;;;;;;;;;;;;;;;;4953773;28;20052;-90
2023/08/04 11:33:58;;;;;;;;;;;;;;;;;;4953323;28;19964;-89
2023/08/04 11:36:24;;;;;;;;;;;;;;;;;;4954208;28;19926;-89
2023/08/04 11:38:50;;;;;;;;;;;;;;;;;;4972885;28;19936;-89
2023/08/04 11:41:16;;;;;;;;;;;;;;;;;;4970397;28;19932;-89
2023/08/04 11:43:42;;;;;;;;;;;;;;;;;;4968297;28;20299;-89
2023/08/04 11:46:08;;;;;;;;;;;;;;;;;;4955647;28;19925;-92
2023/08/04 11:48:35;;;;;;;;;;;;;;;;;;4954953;28;19925;-92
2023/08/04 11:51:01;;;;;;;;;;;;;;;;;;4974675;28;20290;-93
2023/08/04 11:53:33;;;;;;;;;;;;;;;;;;4954184;28;19929;-87
2023/08/04 11:56:08;;;;;;;;;;;;;;;;;;4950918;28;20221;-87
2023/08/04 11:58:34;;;;;;;;;;;;;;;;;;4951912;28;19976;-88
2023/08/04 12:01:00;;;;;;;;;;;;;;;;;;4968503;28;19926;-88
2023/08/04 12:03:26;;;;;;;;;;;;;;;;;;4953418;28;19925;-86
2023/08/04 12:05:52;;;;;;;;;;;;;;;;;;4952563;28;19926;-87
2023/08/04 12:08:18;;;;;;;;;;;;;;;;;;4963323;28;19944;-86
2023/08/04 12:10:44;;;;;;;;;;;;;;;;;;4986071;28;19921;-85
2023/08/04 12:13:13;;;;;;;;;;;;;;;;;;4968919;28;19976;-85
2023/08/04 12:15:39;;;;;;;;;;;;;;;;;;4966523;28;19957;-86
2023/08/04 12:18:05;;;;;;;;;;;;;;;;;;4968663;28;19922;-85
2023/08/04 12:20:33;;;;;;;;;;;;;;;;;;4962189;28;19953;-86
2023/08/04 12:22:59;;;;;;;;;;;;;;;;;;4967097;28;19922;-86
2023/08/04 12:25:25;;;;;;;;;;;;;;;;;;4968805;28;19921;-86
2023/08/04 12:27:51;;;;;;;;;;;;;;;;;;4950986;28;19926;-85
2023/08/04 12:30:20;;;;;;;;;;;;;;;;;;4968016;28;19929;-86
2023/08/04 12:32:50;;;;;;;;;;;;;;;;;;4953090;28;19955;-87
2023/08/04 12:35:26;;;;;;;;;;;;;;;;;;4968141;28;20464;-87
2023/08/04 12:37:54;;;;;;;;;;;;;;;;;;4985667;28;19946;-86
2023/08/04 12:40:23;;;;;;;;;;;;;;;;;;4969123;28;20508;-86
2023/08/04 12:42:52;;;;;;;;;;;;;;;;;;4984840;28;20374;-87
2023/08/04 12:45:18;;;;;;;;;;;;;;;;;;4968063;28;19925;-88
2023/08/04 12:47:44;;;;;;;;;;;;;;;;;;4956906;28;19926;-88
2023/08/04 12:50:17;;;;;;;;;;;;;;;;;;4963292;28;20291;-86
2023/08/04 12:52:46;;;;;;;;;;;;;;;;;;4947079;28;19964;-87
2023/08/04 12:55:12;;;;;;;;;;;;;;;;;;4984731;28;20359;-87
2023/08/04 12:57:45;;;;;;;;;;;;;;;;;;4971019;28;19936;-86
2023/08/04 13:00:11;;;;;;;;;;;;;;;;;;4974073;28;20055;-87
2023/08/04 13:02:37;;;;;;;;;;;;;;;;;;4967909;28;19930;-88
2023/08/04 13:05:03;;;;;;;;;;;;;;;;;;4970072;28;19983;-87
2023/08/04 13:07:29;;;;;;;;;;;;;;;;;;4971590;28;20025;-89
2023/08/04 13:09:55;;;;;;;;;;;;;;;;;;4953435;28;19968;-87
2023/08/04 13:12:20;;;;;;;;;;;;;;;;;;4969844;28;20331;-87
2023/08/04 13:14:46;;;;;;;;;;;;;;;;;;4995782;28;20012;-86
2023/08/04 13:17:12;;;;;;;;;;;;;;;;;;4955559;28;20024;-87
2023/08/04 13:19:38;;;;;;;;;;;;;;;;;;4968088;28;20401;-88
2023/08/04 13:22:04;;;;;;;;;;;;;;;;;;4956909;28;20295;-86
2023/08/04 13:24:30;;;;;;;;;;;;;;;;;;4972534;28;19925;-87
2023/08/04 13:26:56;;;;;;;;;;;;;;;;;;4988811;28;20677;-88
2023/08/04 13:29:22;;;;;;;;;;;;;;;;;;4990018;28;20449;-87
2023/08/04 13:31:48;;;;;;;;;;;;;;;;;;4970508;28;19929;-87
2023/08/04 13:34:14;;;;;;;;;;;;;;;;;;4971964;28;19926;-88
2023/08/04 13:36:40;;;;;;;;;;;;;;;;;;4985275;28;19957;-87
2023/08/04 13:39:07;;;;;;;;;;;;;;;;;;4964364;28;19931;-87
2023/08/04 13:41:33;;;;;;;;;;;;;;;;;;4981789;28;19975;-88
2023/08/04 13:43:59;;;;;;;;;;;;;;;;;;4964539;28;19930;-92
2023/08/04 13:46:25;;;;;;;;;;;;;;;;;;4967006;28;19925;-91
2023/08/04 13:48:51;;;;;;;;;;;;;;;;;;4968738;28;20040;-90
2023/08/04 13:51:17;;;;;;;;;;;;;;;;;;4959548;28;19925;-90
2023/08/04 13:53:46;;;;;;;;;;;;;;;;;;4954996;28;20028;-90
2023/08/04 13:59:15;;;;;;;;;;;;;;;;;;4991111;28;20089;-90
2023/08/04 14:01:41;;;;;;;;;;;;;;;;;;4976015;28;19956;-91
2023/08/04 14:04:07;;;;;;;;;;;;;;;;;;4946179;28;20393;-90
2023/08/04 14:06:34;;;;;;;;;;;;;;;;;;4998870;28;19929;-91
2023/08/04 14:09:00;;;;;;;;;;;;;;;;;;4997815;28;19975;-91
2023/08/04 14:11:26;;;;;;;;;;;;;;;;;;4950153;28;19980;-90
2023/08/04 14:13:55;;;;;;;;;;;;;;;;;;4974101;28;19933;-90
2023/08/04 14:16:21;;;;;;;;;;;;;;;;;;4983519;28;19972;-90
2023/08/04 14:18:47;;;;;;;;;;;;;;;;;;4948378;28;19964;-88
2023/08/04 14:21:13;;;;;;;;;;;;;;;;;;4932519;28;19965;-88
2023/08/04 14:23:40;;;;;;;;;;;;;;;;;;4930537;28;20302;-89
2023/08/04 14:26:05;;;;;;;;;;;;;;;;;;4958479;28;19978;-88
2023/08/04 14:28:31;;;;;;;;;;;;;;;;;;4955209;28;20036;-88
2023/08/04 14:30:58;;;;;;;;;;;;;;;;;;4939785;28;19926;-89
2023/08/04 14:33:24;;;;;;;;;;;;;;;;;;4937128;28;20892;-90
2023/08/04 14:35:50;;;;;;;;;;;;;;;;;;4967502;28;19925;-88
2023/08/04 14:38:16;;;;;;;;;;;;;;;;;;4950687;28;19949;-88
2023/08/04 14:40:43;;;;;;;;;;;;;;;;;;4948147;28;19926;-89
2023/08/04 14:43:12;;;;;;;;;;;;;;;;;;4946835;28;20040;-89
2023/08/04 14:45:38;;;;;;;;;;;;;;;;;;4951090;28;19926;-88
2023/08/04 14:48:04;;;;;;;;;;;;;;;;;;4936883;28;19925;-89
2023/08/04 14:50:34;;;;;;;;;;;;;;;;;;4933622;28;20236;-90
2023/08/04 14:53:00;;;;;;;;;;;;;;;;;;4937357;28;19918;-90
2023/08/04 14:55:26;;;;;;;;;;;;;;;;;;4951541;28;20386;-90
2023/08/04 14:57:51;;;;;;;;;;;;;;;;;;4952667;28;19928;-88
2023/08/04 15:00:17;;;;;;;;;;;;;;;;;;4974224;28;20337;-89
2023/08/04 15:02:44;;;;;;;;;;;;;;;;;;4946034;28;19973;-89
2023/08/04 15:05:10;;;;;;;;;;;;;;;;;;4963494;28;19922;-89
2023/08/04 15:07:36;;;;;;;;;;;;;;;;;;4952381;28;19929;-89
2023/08/04 15:10:03;;;;;;;;;;;;;;;;;;4972565;28;19926;-90
2023/08/04 15:12:29;;;;;;;;;;;;;;;;;;4951242;28;19926;-89
2023/08/04 15:14:56;;;;;;;;;;;;;;;;;;4950401;28;19922;-89
2023/08/04 15:17:22;;;;;;;;;;;;;;;;;;4945235;28;19926;-89
2023/08/04 15:19:50;;;;;;;;;;;;;;;;;;4957536;28;19932;-89
2023/08/04 15:22:16;;;;;;;;;;;;;;;;;;4970469;28;19926;-89
2023/08/04 15:24:42;;;;;;;;;;;;;;;;;;4971215;28;19949;-89
2023/08/04 15:27:08;;;;;;;;;;;;;;;;;;4969951;28;19922;-88
2023/08/04 15:29:34;;;;;;;;;;;;;;;;;;4968398;28;19996;-88
2023/08/04 15:32:00;;;;;;;;;;;;;;;;;;4970533;28;20028;-89
2023/08/04 15:34:26;;;;;;;;;;;;;;;;;;4954107;28;19972;-89
2023/08/04 15:36:52;;;;;;;;;;;;;;;;;;4970309;28;20441;-89
2023/08/04 15:39:18;;;;;;;;;;;;;;;;;;4953648;28;19922;-89
2023/08/04 15:41:44;;;;;;;;;;;;;;;;;;4971313;28;19928;-88
2023/08/04 15:44:10;;;;;;;;;;;;;;;;;;4971147;28;20033;-89
2023/08/04 15:46:36;;;;;;;;;;;;;;;;;;4958606;28;20346;-89
2023/08/04 15:49:02;;;;;;;;;;;;;;;;;;4972130;28;19937;-89
2023/08/04 15:51:28;;;;;;;;;;;;;;;;;;4954017;28;19929;-89
2023/08/04 15:53:54;;;;;;;;;;;;;;;;;;4954087;28;19975;-90
2023/08/04 15:56:23;;;;;;;;;;;;;;;;;;4970262;28;19952;-89
2023/08/04 15:58:49;;;;;;;;;;;;;;;;;;4951638;28;19928;-90
2023/08/04 16:01:18;;;;;;;;;;;;;;;;;;4953957;28;19922;-88
2023/08/04 16:03:44;;;;;;;;;;;;;;;;;;4970100;28;19933;-89
2023/08/04 16:06:16;;;;;;;;;;;;;;;;;;4953813;28;20008;-89
2023/08/04 16:08:44;;;;;;;;;;;;;;;;;;4984833;28;20024;-88
2023/08/04 16:11:10;;;;;;;;;;;;;;;;;;4950236;28;19983;-89
2023/08/04 16:13:36;;;;;;;;;;;;;;;;;;4953207;28;19926;-88
2023/08/04 16:16:01;;;;;;;;;;;;;;;;;;4984652;28;19972;-88
2023/08/04 16:18:27;;;;;;;;;;;;;;;;;;4953159;28;19925;-89
2023/08/04 16:20:53;;;;;;;;;;;;;;;;;;4986943;28;20394;-89
2023/08/04 16:23:22;;;;;;;;;;;;;;;;;;4969753;28;19929;-89
2023/08/04 16:25:51;;;;;;;;;;;;;;;;;;4969478;28;19925;-89
2023/08/04 16:28:17;;;;;;;;;;;;;;;;;;4984721;28;19925;-89
2023/08/04 16:30:43;;;;;;;;;;;;;;;;;;4952975;28;19976;-89
2023/08/04 16:33:10;;;;;;;;;;;;;;;;;;4989951;28;19953;-89
2023/08/04 16:35:36;;;;;;;;;;;;;;;;;;4976618;28;19921;-89
2023/08/04 16:38:02;;;;;;;;;;;;;;;;;;4984332;28;19925;-90